Time;durP1;ratioP1;P1;durP2;ratioP2;P2;SDS_P1;SDS_P2;PMS_P1;PMS_P2;Temp;Humidity;BMP_temperature;BMP_pressure;BME280_temperature;BME280_humidity;BME280_pressure;Samples;Min_cycle;Max_cycle;Signal;HPM_P1;HPM_P2
2020/12/11 00:01:20;;;;;;;10.38;4.70;;;;;;;3.17;87.02;98784.50;4918111;29;20052;-72
2020/12/11 00:03:48;;;;;;;11.00;4.55;;;;;;;3.71;86.90;98873.53;4917705;29;20062;-72
2020/12/11 00:06:20;;;;;;;9.93;4.47;;;;;;;3.20;87.03;98774.47;4917758;29;20116;-72
2020/12/11 00:08:48;;;;;;;8.45;4.40;;;;;;;3.75;87.03;98867.69;4917629;29;20495;-73
2020/12/11 00:11:16;;;;;;;8.65;4.45;;;;;;;3.80;87.62;98867.72;4917669;29;20048;-73
2020/12/11 00:13:45;;;;;;;9.82;4.85;;;;;;;3.66;86.87;98846.53;4917902;29;20050;-72
2020/12/11 00:16:13;;;;;;;10.88;5.15;;;;;;;3.69;87.49;98837.34;4917523;29;20107;-72
2020/12/11 00:18:40;;;;;;;12.30;4.90;;;;;;;3.84;86.94;98866.97;4917756;29;20563;-72
2020/12/11 00:21:08;;;;;;;11.75;5.47;;;;;;;3.81;87.22;98857.69;4917477;29;20059;-72
2020/12/11 00:23:36;;;;;;;10.95;5.10;;;;;;;3.82;86.83;98864.41;4917541;29;20100;-72
2020/12/11 00:26:04;;;;;;;9.82;4.68;;;;;;;3.63;86.71;98842.28;4917164;29;20458;-72
2020/12/11 00:28:32;;;;;;;10.55;5.07;;;;;;;3.83;86.82;98871.16;4917480;29;20100;-73
2020/12/11 00:31:01;;;;;;;9.85;5.10;;;;;;;3.81;87.07;98877.00;4917309;29;20451;-72
2020/12/11 00:33:29;;;;;;;11.67;4.97;;;;;;;3.65;87.11;98854.91;4916316;29;20079;-72
2020/12/11 00:35:56;;;;;;;12.43;5.50;;;;;;;3.31;86.79;98793.13;4917547;29;20123;-73
2020/12/11 00:38:29;;;;;;;10.65;5.82;;;;;;;3.82;87.18;98879.53;4917288;29;20044;-73
2020/12/11 00:40:57;;;;;;;13.70;5.47;;;;;;;3.71;86.42;98870.16;4917357;29;20059;-72
2020/12/11 00:43:25;;;;;;;12.27;5.43;;;;;;;3.44;86.98;98820.19;4916097;29;20040;-72
2020/12/11 00:45:53;;;;;;;15.75;6.78;;;;;;;3.66;87.07;98854.94;4916096;29;20043;-72
2020/12/11 00:48:23;;;;;;;12.35;5.25;;;;;;;3.80;87.14;98861.03;4918038;29;20048;-72
2020/12/11 00:50:51;;;;;;;11.48;5.38;;;;;;;3.89;87.00;98877.94;4921146;29;20074;-73
2020/12/11 00:53:20;;;;;;;15.52;5.68;;;;;;;3.80;86.91;98861.03;4919952;29;20048;-72
2020/12/11 00:55:48;;;;;;;11.55;5.20;;;;;;;4.00;86.49;98877.28;4920258;29;20052;-72
2020/12/11 00:58:15;;;;;;;9.60;5.20;;;;;;;3.99;86.74;98882.28;4921138;29;20043;-72
2020/12/11 01:00:43;;;;;;;11.68;5.40;;;;;;;3.97;86.42;98878.91;4921017;29;20040;-72
2020/12/11 01:03:11;;;;;;;13.05;5.82;;;;;;;4.04;86.78;98878.13;4920846;29;20064;-73
2020/12/11 01:05:39;;;;;;;11.23;5.50;;;;;;;3.77;86.62;98830.69;4920942;29;20210;-72
2020/12/11 01:08:07;;;;;;;12.32;5.45;;;;;;;4.04;86.56;98884.03;4920735;29;20046;-72
2020/12/11 01:10:35;;;;;;;12.55;5.63;;;;;;;3.95;86.23;98880.56;4920858;29;20037;-73
2020/12/11 01:13:02;;;;;;;13.30;5.45;;;;;;;3.93;86.56;98882.22;4920656;29;20047;-72
2020/12/11 01:15:30;;;;;;;12.27;5.18;;;;;;;3.96;86.09;98872.13;4920754;29;20431;-73
2020/12/11 01:17:58;;;;;;;12.70;5.65;;;;;;;3.98;86.09;98875.56;4920590;29;20056;-73
2020/12/11 01:20:27;;;;;;;11.18;5.50;;;;;;;3.91;86.53;98853.59;4920667;29;20387;-72
2020/12/11 01:22:56;;;;;;;12.70;5.60;;;;;;;4.04;86.05;98868.88;4920599;29;20075;-72
2020/12/11 01:25:24;;;;;;;12.07;5.25;;;;;;;4.00;86.63;98868.84;4920299;29;20059;-73
2020/12/11 01:27:52;;;;;;;12.30;5.88;;;;;;;3.36;86.28;98761.22;4920492;29;20048;-73
2020/12/11 01:30:20;;;;;;;15.25;5.50;;;;;;;3.84;85.98;98847.59;4920459;29;20047;-72
2020/12/11 01:32:48;;;;;;;12.38;5.90;;;;;;;3.89;86.36;98845.97;4920508;29;20048;-72
2020/12/11 01:35:16;;;;;;;14.32;5.88;;;;;;;4.04;86.60;98868.88;4920570;29;20067;-72
2020/12/11 01:37:43;;;;;;;12.50;5.90;;;;;;;4.00;86.63;98869.69;4920380;29;20048;-73
2020/12/11 01:40:12;;;;;;;12.02;5.35;;;;;;;3.94;86.34;98864.56;4920191;29;20044;-73
2020/12/11 01:42:41;;;;;;;12.97;5.53;;;;;;;3.85;86.79;98843.41;4920573;29;20394;-72
2020/12/11 01:45:09;;;;;;;12.48;6.13;;;;;;;3.71;86.63;98829.78;4920068;29;20052;-72
2020/12/11 01:47:39;;;;;;;10.75;5.47;;;;;;;3.87;86.55;98862.78;4919076;29;20135;-73
2020/12/11 01:50:08;;;;;;;13.80;6.50;;;;;;;3.76;86.43;98839.09;4920416;29;20494;-73
2020/12/11 01:52:36;;;;;;;9.38;4.70;;;;;;;3.86;86.93;98850.16;4919303;29;20071;-72
2020/12/11 01:55:04;;;;;;;14.65;5.57;;;;;;;3.83;86.33;98856.03;4920049;29;20398;-73
2020/12/11 01:57:34;;;;;;;13.80;6.22;;;;;;;3.81;87.19;98847.59;4919013;29;20048;-73
2020/12/11 02:00:04;;;;;;;13.25;5.78;;;;;;;3.86;86.67;98838.38;4919021;29;20044;-72
2020/12/11 02:02:33;;;;;;;11.68;5.60;;;;;;;3.81;86.61;98842.53;4919913;29;20076;-73
2020/12/11 02:05:01;;;;;;;14.75;6.32;;;;;;;3.60;87.19;98806.91;4920205;29;20062;-73
2020/12/11 02:07:28;;;;;;;12.02;5.75;;;;;;;3.79;87.25;98845.88;4919733;29;20056;-73
2020/12/11 02:09:56;;;;;;;14.63;6.45;;;;;;;3.58;86.95;98807.72;4919826;29;20047;-73
2020/12/11 02:12:24;;;;;;;13.70;6.68;;;;;;;3.81;87.22;98842.53;4919665;29;20410;-72
2020/12/11 02:14:53;;;;;;;13.57;6.95;;;;;;;3.56;87.14;98805.19;4919726;29;20112;-73
2020/12/11 02:17:26;;;;;;;13.27;6.32;;;;;;;3.82;86.80;98839.16;4919561;29;20479;-73
2020/12/11 02:19:54;;;;;;;17.13;7.00;;;;;;;3.40;87.13;98773.06;4919643;29;20044;-72
2020/12/11 02:22:23;;;;;;;16.35;6.78;;;;;;;3.23;87.43;98750.16;4918984;29;20048;-73
2020/12/11 02:24:51;;;;;;;16.80;7.35;;;;;;;3.79;87.69;98849.22;4919253;29;20048;-73
2020/12/11 02:27:19;;;;;;;12.15;5.97;;;;;;;3.66;87.40;98821.31;4919523;29;20064;-73
2020/12/11 02:29:48;;;;;;;13.00;6.70;;;;;;;3.80;86.97;98838.31;4919393;29;20079;-73
2020/12/11 02:32:16;;;;;;;12.75;6.53;;;;;;;3.81;87.64;98836.63;4919425;29;20137;-72
2020/12/11 02:34:44;;;;;;;15.10;6.78;;;;;;;3.85;87.49;98846.78;4919241;29;20049;-72
2020/12/11 02:37:12;;;;;;;12.68;6.22;;;;;;;3.84;87.44;98842.56;4918461;29;20056;-73
2020/12/11 02:39:41;;;;;;;15.93;7.03;;;;;;;3.65;87.55;98830.53;4917917;29;20103;-73
2020/12/11 02:42:09;;;;;;;14.07;6.63;;;;;;;3.58;87.59;98813.63;4919242;29;20495;-72
2020/12/11 02:44:37;;;;;;;14.23;6.47;;;;;;;3.80;87.45;98845.88;4919077;29;20526;-73
2020/12/11 02:47:05;;;;;;;19.38;7.50;;;;;;;3.71;87.17;98835.69;4919137;29;20052;-73
2020/12/11 02:49:33;;;;;;;15.15;7.13;;;;;;;3.86;87.03;98856.03;4918922;29;20499;-73
2020/12/11 02:52:01;;;;;;;16.88;7.15;;;;;;;3.87;87.41;98857.75;4919027;29;20048;-72
2020/12/11 02:54:29;;;;;;;16.73;6.85;;;;;;;3.82;87.85;98851.78;4918926;29;20384;-73
2020/12/11 02:56:58;;;;;;;12.50;6.20;;;;;;;3.85;87.54;98841.75;4918920;29;20111;-73
2020/12/11 02:59:26;;;;;;;10.20;4.72;;;;;;;3.88;87.50;98851.88;4918838;29;20048;-72
2020/12/11 03:01:54;;;;;;;15.32;6.80;;;;;;;3.14;87.14;98724.78;4918774;29;20036;-73
2020/12/11 03:04:22;;;;;;;13.13;6.03;;;;;;;3.75;87.47;98832.34;4918844;29;20048;-73
2020/12/11 03:06:50;;;;;;;14.90;6.55;;;;;;;3.79;86.74;98826.50;4918702;29;20048;-73
2020/12/11 03:09:18;;;;;;;14.80;6.80;;;;;;;3.89;87.48;98838.41;4918751;29;20537;-73
2020/12/11 03:11:46;;;;;;;12.93;6.13;;;;;;;3.88;87.09;98841.78;4918577;29;20066;-73
2020/12/11 03:14:14;;;;;;;15.30;6.35;;;;;;;3.60;87.41;98793.50;4918671;29;20068;-73
2020/12/11 03:16:42;;;;;;;14.25;5.90;;;;;;;3.83;86.61;98840.03;4918459;29;20044;-73
2020/12/11 03:19:10;;;;;;;14.93;7.47;;;;;;;3.65;86.74;98820.44;4918493;29;20139;-73
2020/12/11 03:21:38;;;;;;;11.93;6.15;;;;;;;3.71;87.24;98827.25;4918388;29;20135;-73
2020/12/11 03:24:05;;;;;;;14.23;6.43;;;;;;;3.83;87.53;98850.97;4918517;29;20044;-73
2020/12/11 03:26:33;;;;;;;12.90;6.00;;;;;;;3.79;86.71;98851.75;4918142;29;20067;-73
2020/12/11 03:29:01;;;;;;;13.82;6.28;;;;;;;3.76;87.00;98858.44;4918609;29;20076;-73
2020/12/11 03:31:30;;;;;;;12.60;6.20;;;;;;;3.67;87.29;98838.97;4918294;29;20465;-73
2020/12/11 03:33:57;;;;;;;16.27;6.88;;;;;;;3.84;87.39;98861.91;4918217;29;20076;-73
2020/12/11 03:36:25;;;;;;;11.65;6.03;;;;;;;3.31;86.75;98790.59;4917114;29;20051;-73
2020/12/11 03:38:54;;;;;;;13.98;5.90;;;;;;;3.57;86.73;98832.13;4918004;29;20068;-73
2020/12/11 03:41:22;;;;;;;11.40;5.43;;;;;;;3.59;86.93;98843.09;4918162;29;20083;-73
2020/12/11 03:43:50;;;;;;;12.98;6.22;;;;;;;3.81;86.68;98870.28;4916817;29;20079;-73
2020/12/11 03:46:19;;;;;;;10.75;5.38;;;;;;;3.19;86.71;98776.13;4918126;29;20040;-73
2020/12/11 03:48:48;;;;;;;11.70;5.90;;;;;;;3.66;87.13;98854.09;4917936;29;20055;-73
2020/12/11 03:51:17;;;;;;;13.85;6.75;;;;;;;3.86;87.05;98870.34;4918312;29;20447;-73
2020/12/11 03:53:45;;;;;;;11.88;6.05;;;;;;;3.92;86.76;98868.75;4916778;29;20050;-73
2020/12/11 03:56:14;;;;;;;15.40;6.20;;;;;;;3.92;86.49;98866.22;4917828;29;20506;-73
2020/12/11 03:58:42;;;;;;;;;;;;;;;3.90;86.50;98862.84;4917345;29;20040;-73
2020/12/11 04:01:10;;;;;;;11.85;5.88;;;;;;;3.86;86.80;98845.94;4917775;29;20385;-73
2020/12/11 04:03:38;;;;;;;12.27;5.45;;;;;;;4.03;86.74;98854.56;4917814;29;20052;-73
2020/12/11 04:06:08;;;;;;;11.30;5.88;;;;;;;3.98;86.43;98850.31;4917631;29;20080;-73
2020/12/11 04:08:36;;;;;;;13.38;5.85;;;;;;;3.97;86.57;98849.47;4918074;29;20058;-73
2020/12/11 04:11:05;;;;;;;12.82;5.85;;;;;;;3.96;86.77;98852.78;4917570;29;20044;-73
2020/12/11 04:13:32;;;;;;;13.18;6.03;;;;;;;3.60;85.91;98796.84;4917659;29;20055;-73
2020/12/11 04:16:00;;;;;;;12.77;5.82;;;;;;;4.03;85.65;98859.59;4917575;29;20048;-73
2020/12/11 04:18:28;;;;;;;12.73;6.32;;;;;;;3.73;85.74;98812.97;4917555;29;20048;-73
2020/12/11 04:20:56;;;;;;;12.80;5.90;;;;;;;4.01;86.34;98856.22;4917765;29;20103;-73
2020/12/11 04:23:25;;;;;;;13.73;6.13;;;;;;;3.63;85.73;98781.75;4917118;29;20044;-73
2020/12/11 04:25:53;;;;;;;10.48;5.65;;;;;;;3.76;86.12;98818.94;4917266;29;20060;-73
2020/12/11 04:28:22;;;;;;;12.13;5.38;;;;;;;3.50;85.72;98784.09;4917384;29;20047;-73
2020/12/11 04:30:50;;;;;;;12.63;5.88;;;;;;;3.93;85.92;98865.41;4917397;29;20052;-73
2020/12/11 04:33:18;;;;;;;10.82;5.63;;;;;;;3.91;85.39;98864.50;4917322;29;20040;-73
2020/12/11 04:35:46;;;;;;;11.52;5.53;;;;;;;3.92;85.58;98855.28;4917414;29;20131;-73
2020/12/11 04:38:14;;;;;;;10.52;5.20;;;;;;;3.36;85.03;98776.34;4916121;29;20047;-73
2020/12/11 04:40:43;;;;;;;9.95;4.97;;;;;;;3.53;85.25;98804.34;4917608;29;20052;-72
2020/12/11 04:43:11;;;;;;;;;;;;;;;3.83;85.44;98845.94;4916464;29;20054;-73
2020/12/11 04:45:39;;;;;;;10.55;5.80;;;;;;;3.77;85.41;98830.69;4916171;29;19926;-73
2020/12/11 04:48:08;;;;;;;12.15;6.00;;;;;;;3.85;85.16;98854.34;4917456;29;20064;-72
2020/12/11 04:50:35;;;;;;;12.63;5.93;;;;;;;3.86;85.04;98848.47;4918031;29;20099;-73
2020/12/11 04:53:03;;;;;;;10.50;5.95;;;;;;;3.90;85.18;98857.78;4917425;29;20036;-73
2020/12/11 04:55:34;;;;;;;13.05;6.28;;;;;;;3.99;85.08;98857.03;4917234;29;20099;-73
2020/12/11 04:58:05;;;;;;;10.80;5.22;;;;;;;3.77;85.16;98815.56;4917214;29;20140;-73
2020/12/11 05:00:34;;;;;;;14.20;7.60;;;;;;;3.56;85.03;98792.59;4917374;29;20043;-73
2020/12/11 05:03:02;;;;;;;14.00;6.63;;;;;;;3.96;85.22;98855.31;4917409;29;20095;-73
2020/12/11 05:05:29;;;;;;;15.90;8.10;;;;;;;3.83;85.22;98840.88;4917074;29;20498;-73
2020/12/11 05:07:57;;;;;;;15.02;7.18;;;;;;;3.84;84.83;98857.69;4915968;29;20075;-73
2020/12/11 05:10:25;;;;;;;13.63;6.50;;;;;;;3.82;85.42;98854.31;4915884;29;20060;-73
2020/12/11 05:12:53;;;;;;;12.35;6.35;;;;;;;3.49;84.83;98798.38;4917077;29;20490;-73
2020/12/11 05:15:22;;;;;;;13.35;5.93;;;;;;;3.60;84.95;98822.06;4916929;29;20107;-73
2020/12/11 05:17:49;;;;;;;14.75;6.75;;;;;;;3.79;85.34;98851.75;4917100;29;20081;-73
2020/12/11 05:20:18;;;;;;;19.42;8.38;;;;;;;3.78;85.55;98847.53;4916853;29;20561;-73
2020/12/11 05:22:45;;;;;;;17.63;7.82;;;;;;;3.77;85.12;98860.97;4917029;29;20147;-73
2020/12/11 05:25:13;;;;;;;16.63;7.57;;;;;;;3.76;85.83;98860.97;4916633;29;20087;-73
2020/12/11 05:27:42;;;;;;;23.30;10.48;;;;;;;3.74;85.62;98865.97;4916949;29;20044;-73
2020/12/11 05:30:21;;;;;;;18.33;8.30;;;;;;;3.71;86.13;98871.00;4916804;29;20123;-73
2020/12/11 05:32:49;;;;;;;14.95;7.47;;;;;;;3.66;85.62;98870.09;4917288;29;20052;-73
2020/12/11 05:35:35;;;;;;;11.20;5.18;;;;;;;3.61;85.79;98875.88;4917508;29;20044;-73
2020/12/11 05:38:04;;;;;;;14.20;7.05;;;;;;;3.61;86.28;98876.75;4920466;29;20052;-73
2020/12/11 05:40:34;;;;;;;15.65;7.38;;;;;;;3.49;86.93;98838.75;4920268;29;20072;-73
2020/12/11 05:43:09;;;;;;;17.15;7.15;;;;;;;3.17;86.64;98789.53;4919155;29;20044;-73
2020/12/11 05:45:38;;;;;;;15.75;7.15;;;;;;;3.29;86.46;98809.88;4920198;29;20048;-73
2020/12/11 05:48:07;;;;;;;12.23;6.22;;;;;;;3.70;86.32;98873.47;4920792;29;20054;-73
2020/12/11 05:50:36;;;;;;;13.30;6.15;;;;;;;3.79;86.21;98879.50;4920143;29;20499;-73
2020/12/11 05:53:03;;;;;;;13.63;6.53;;;;;;;3.78;86.59;98875.28;4920534;29;20048;-73
2020/12/11 05:55:31;;;;;;;14.18;5.93;;;;;;;3.80;85.64;98891.28;4920254;29;20104;-73
2020/12/11 05:57:59;;;;;;;10.20;5.40;;;;;;;3.80;85.44;98885.41;4919908;29;20380;-73
2020/12/11 06:00:26;;;;;;;15.38;6.80;;;;;;;3.81;85.33;98882.91;4919945;29;20067;-73
2020/12/11 06:02:55;;;;;;;14.27;6.32;;;;;;;3.85;85.77;98897.25;4919833;29;20131;-73
2020/12/11 06:05:25;;;;;;;11.82;6.03;;;;;;;3.82;84.87;98883.72;4918844;29;20127;-73
2020/12/11 06:07:52;;;;;;;15.95;6.20;;;;;;;3.76;84.86;98892.09;4918862;29;20479;-73
2020/12/11 06:10:21;;;;;;;15.95;6.80;;;;;;;3.73;85.54;98879.44;4919848;29;20134;-73
2020/12/11 06:12:49;;;;;;;12.27;6.60;;;;;;;3.78;85.21;98877.81;4919766;29;20060;-73
2020/12/11 06:15:28;;;;;;;12.95;6.63;;;;;;;3.81;85.68;98893.00;4919698;29;20369;-73
2020/12/11 06:17:59;;;;;;;13.10;6.65;;;;;;;3.26;85.02;98794.72;4920037;29;20044;-73
2020/12/11 06:20:29;;;;;;;13.85;6.50;;;;;;;3.77;84.67;98881.16;4919177;29;20500;-71
2020/12/11 06:23:22;;;;;;;14.90;7.03;;;;;;;3.85;84.92;98889.69;4919391;29;20130;-71
2020/12/11 06:25:51;;;;;;;12.48;6.50;;;;;;;3.75;84.60;98872.72;4917910;29;20460;-72
2020/12/11 06:28:41;;;;;;;12.82;6.53;;;;;;;3.89;85.23;98885.50;4919344;29;20127;-72
2020/12/11 06:31:09;;;;;;;15.05;6.97;;;;;;;3.91;85.11;98879.66;4919493;29;20451;-71
2020/12/11 06:33:38;;;;;;;11.70;6.28;;;;;;;3.90;85.18;98883.03;4919396;29;20071;-72
2020/12/11 06:36:06;;;;;;;11.30;6.00;;;;;;;3.47;84.47;98800.03;4919634;29;20402;-73
2020/12/11 06:38:44;;;;;;;12.90;7.25;;;;;;;3.86;85.04;98861.06;4919352;29;20075;-73
2020/12/11 06:41:13;;;;;;;13.60;6.67;;;;;;;3.91;84.97;98874.59;4919126;29;20402;-73
2020/12/11 06:43:42;;;;;;;9.90;5.45;;;;;;;3.49;84.29;98800.91;4919253;29;20131;-73
2020/12/11 06:46:11;;;;;;;10.13;5.45;;;;;;;3.89;84.04;98866.19;4918713;29;20067;-71
2020/12/11 06:49:04;;;;;;;12.60;5.82;;;;;;;3.93;84.58;98883.06;4919247;29;20059;-71
2020/12/11 06:51:33;;;;;;;11.82;6.65;;;;;;;3.90;84.41;98877.97;4919059;29;20482;-73
2020/12/11 06:54:01;;;;;;;14.55;7.60;;;;;;;3.94;84.38;98886.41;4919043;29;20565;-70
2020/12/11 06:56:41;;;;;;;9.90;5.15;;;;;;;3.94;84.14;98889.78;4917780;29;20051;-73
2020/12/11 06:59:20;;;;;;;13.05;6.50;;;;;;;3.92;84.34;98888.94;4919046;29;20059;-72
2020/12/11 07:01:48;;;;;;;10.55;5.90;;;;;;;3.86;83.90;98868.66;4918873;29;20052;-71
2020/12/11 07:04:16;;;;;;;13.88;7.70;;;;;;;3.92;84.00;98886.41;4919197;29;20059;-71
2020/12/11 07:06:48;;;;;;;17.15;7.47;;;;;;;3.92;84.62;98880.50;4918669;29;20490;-72
2020/12/11 07:09:17;;;;;;;14.85;8.15;;;;;;;3.98;84.69;98886.47;4918836;29;20399;-73
2020/12/11 07:11:44;;;;;;;14.98;7.75;;;;;;;4.01;84.56;98891.56;4918911;29;20427;-71
2020/12/11 07:14:13;;;;;;;14.15;7.55;;;;;;;3.91;84.58;98874.59;4918704;29;20048;-71
2020/12/11 07:16:41;;;;;;;14.07;6.78;;;;;;;4.07;84.00;98881.56;4918613;29;20146;-72
2020/12/11 07:19:09;;;;;;;13.55;7.13;;;;;;;4.07;84.72;98889.13;4918736;29;20048;-73
2020/12/11 07:21:38;;;;;;;11.75;6.10;;;;;;;3.98;84.03;98878.06;4918517;29;20048;-73
2020/12/11 07:24:08;;;;;;;10.35;5.95;;;;;;;3.99;84.38;98874.69;4918426;29;20574;-73
2020/12/11 07:26:36;;;;;;;12.17;6.37;;;;;;;4.07;84.11;98879.03;4918113;29;20111;-72
2020/12/11 07:29:04;;;;;;;10.55;6.38;;;;;;;3.72;83.80;98812.13;4918360;29;20052;-73
2020/12/11 07:31:36;;;;;;;13.45;6.65;;;;;;;4.25;83.79;98890.19;4918443;29;20063;-73
2020/12/11 07:34:12;;;;;;;12.95;7.40;;;;;;;4.13;83.77;98880.75;4918263;29;20123;-70
2020/12/11 07:36:39;;;;;;;12.15;5.97;;;;;;;4.12;83.56;98875.72;4918671;29;20067;-71
2020/12/11 07:39:14;;;;;;;9.40;5.10;;;;;;;4.24;83.52;98889.31;4918207;29;20048;-71
2020/12/11 07:41:44;;;;;;;9.52;5.45;;;;;;;4.18;83.73;98874.09;4918640;29;20494;-71
2020/12/11 07:44:20;;;;;;;12.38;6.10;;;;;;;4.16;83.33;98877.44;4918102;29;20490;-72
2020/12/11 07:46:50;;;;;;;15.10;7.88;;;;;;;4.25;83.42;98875.03;4918188;29;20080;-73
2020/12/11 07:49:18;;;;;;;16.15;8.43;;;;;;;4.28;83.66;98870.00;4918039;29;20067;-72
2020/12/11 07:51:45;;;;;;;14.75;7.70;;;;;;;4.28;83.29;98872.50;4917947;29;20063;-71
2020/12/11 07:54:14;;;;;;;15.50;7.63;;;;;;;4.20;82.97;98867.38;4917946;29;20056;-73
2020/12/11 07:56:43;;;;;;;14.65;7.22;;;;;;;4.30;83.50;98868.31;4917902;29;20060;-73
2020/12/11 07:59:10;;;;;;;14.82;6.90;;;;;;;4.29;83.06;98867.50;4917166;29;20407;-71
2020/12/11 08:01:40;;;;;;;18.48;7.55;;;;;;;3.79;83.24;98783.59;4916603;29;20100;-73
2020/12/11 08:04:08;;;;;;;13.13;7.25;;;;;;;4.14;83.47;98852.16;4918161;29;20095;-73
2020/12/11 08:06:36;;;;;;;15.75;7.43;;;;;;;4.25;83.11;98864.94;4917701;29;20048;-71
2020/12/11 08:09:11;;;;;;;16.80;8.32;;;;;;;4.26;83.60;98856.50;4917758;29;20055;-72
2020/12/11 08:11:44;;;;;;;18.02;9.10;;;;;;;4.34;83.09;98872.59;4917643;29;20052;-73
2020/12/11 08:14:12;;;;;;;17.63;8.10;;;;;;;4.39;83.08;98868.44;4917746;29;20127;-73
2020/12/11 08:16:39;;;;;;;15.02;7.40;;;;;;;4.50;83.62;98866.88;4917512;29;20559;-73
2020/12/11 08:19:09;;;;;;;14.80;7.55;;;;;;;4.52;83.03;98860.16;4916209;29;20040;-72
2020/12/11 08:21:38;;;;;;;16.33;7.75;;;;;;;4.52;82.40;98855.94;4917612;29;20052;-72
2020/12/11 08:24:06;;;;;;;15.63;7.07;;;;;;;4.55;83.04;98861.03;4917418;29;20048;-71
2020/12/11 08:26:37;;;;;;;16.48;7.65;;;;;;;4.44;82.92;98826.41;4917220;29;20052;-72
2020/12/11 08:29:06;;;;;;;16.27;7.72;;;;;;;4.49;82.30;98837.38;4917079;29;20482;-74
2020/12/11 08:31:40;;;;;;;12.55;6.18;;;;;;;4.54;82.60;98843.31;4917370;29;20056;-72
2020/12/11 08:34:09;;;;;;;14.10;6.28;;;;;;;4.57;82.40;98843.34;4917377;29;20052;-71
2020/12/11 08:36:38;;;;;;;13.13;6.25;;;;;;;4.64;81.86;98840.91;4917338;29;20044;-72
2020/12/11 08:39:16;;;;;;;14.00;6.37;;;;;;;4.61;81.43;98845.91;4917461;29;20071;-71
2020/12/11 08:42:06;;;;;;;11.82;5.45;;;;;;;4.58;81.95;98840.00;4917305;29;20481;-71
2020/12/11 08:47:54;;;;;;;15.23;7.40;;;;;;;4.73;81.51;98819.91;4917231;29;20040;-71
2020/12/11 08:50:28;;;;;;;13.93;6.93;;;;;;;4.60;81.30;98813.06;4917173;29;20056;-71
2020/12/11 08:52:56;;;;;;;14.50;5.90;;;;;;;4.58;81.48;98818.09;4917262;29;20048;-71
2020/12/11 08:55:24;;;;;;;14.23;6.10;;;;;;;4.52;80.75;98820.56;4917163;29;20059;-71
2020/12/11 08:57:52;;;;;;;10.70;5.18;;;;;;;4.56;81.04;98821.44;4917268;29;20398;-71
2020/12/11 09:00:21;;;;;;;12.07;5.78;;;;;;;4.50;80.88;98818.88;4916969;29;20055;-71
2020/12/11 09:02:49;;;;;;;11.88;5.38;;;;;;;4.56;80.49;98826.50;4917203;29;20088;-71
2020/12/11 09:05:16;;;;;;;15.27;6.78;;;;;;;4.56;81.02;98824.81;4917143;29;20054;-72
2020/12/11 09:07:44;;;;;;;11.50;5.95;;;;;;;4.40;80.24;98809.50;4917157;29;20402;-71
2020/12/11 09:10:13;;;;;;;13.13;6.40;;;;;;;4.49;80.69;98829.78;4919022;29;20394;-71
2020/12/11 09:12:42;;;;;;;12.48;6.18;;;;;;;4.47;80.76;98827.25;4920938;29;20056;-71
2020/12/11 09:15:14;;;;;;;12.13;5.68;;;;;;;4.45;81.31;98828.09;4920748;29;20101;-71
2020/12/11 09:17:43;;;;;;;12.23;5.88;;;;;;;4.36;81.58;98812.84;4921080;29;20399;-71
2020/12/11 09:20:11;;;;;;;11.80;5.97;;;;;;;4.44;81.61;98822.19;4920638;29;20499;-71
2020/12/11 09:22:38;;;;;;;16.45;7.18;;;;;;;4.40;81.08;98804.44;4920598;29;20306;-72
2020/12/11 09:25:06;;;;;;;14.70;7.40;;;;;;;4.46;81.25;98819.69;4920707;29;20048;-72
2020/12/11 09:27:36;;;;;;;15.48;7.35;;;;;;;4.49;81.84;98809.59;4920677;29;20052;-72
2020/12/11 09:30:14;;;;;;;;;;;;;;;4.51;81.79;98807.94;4920947;29;20060;-72
2020/12/11 09:32:53;;;;;;;13.70;6.43;;;;;;;4.52;81.48;98794.47;4909159;29;19927;-72
2020/12/11 09:35:22;;;;;;;11.40;6.03;;;;;;;4.06;80.83;98708.19;4901554;29;20052;-72
2020/12/11 09:37:50;;;;;;;12.77;5.95;;;;;;;4.63;80.98;98783.59;4901459;29;20049;-72
2020/12/11 09:40:19;;;;;;;11.55;5.50;;;;;;;4.72;80.40;98777.81;4901448;29;20116;-71
2020/12/11 09:45:30;;;;;;;11.15;5.57;;;;;;;4.78;79.98;98762.66;4900337;29;20056;-72
2020/12/11 09:50:57;;;;;;;10.30;5.25;;;;;;;4.79;79.15;98758.47;4899451;29;20072;-72
2020/12/11 09:53:43;;;;;;;10.85;5.88;;;;;;;4.75;78.91;98743.28;4920110;29;20048;-71
2020/12/11 09:56:11;;;;;;;12.98;6.28;;;;;;;4.81;78.65;98752.59;4905423;29;20045;-71
2020/12/11 09:58:43;;;;;;;10.95;5.40;;;;;;;4.79;79.01;98746.69;4901058;29;20504;-71
2020/12/11 10:01:11;;;;;;;13.45;6.13;;;;;;;4.79;79.12;98749.22;4901033;29;20045;-71
2020/12/11 10:03:41;;;;;;;11.48;5.82;;;;;;;4.10;78.96;98622.41;4900856;29;20048;-71
2020/12/11 10:06:11;;;;;;;11.93;5.18;;;;;;;4.85;78.74;98744.19;4901122;29;20064;-72
2020/12/11 10:08:38;;;;;;;11.82;5.38;;;;;;;4.84;78.61;98732.41;4900841;29;20448;-72
2020/12/11 10:11:06;;;;;;;10.07;5.00;;;;;;;4.86;78.82;98740.84;4900950;29;20079;-72
2020/12/11 10:13:35;;;;;;;11.77;5.28;;;;;;;4.90;78.82;98736.63;4900736;29;20040;-72
2020/12/11 10:16:03;;;;;;;10.23;5.20;;;;;;;4.89;78.71;98729.91;4900905;29;20411;-72
2020/12/11 10:18:32;;;;;;;10.80;4.82;;;;;;;4.85;78.10;98733.25;4900772;29;20076;-72
2020/12/11 10:21:01;;;;;;;13.57;5.07;;;;;;;4.84;77.79;98724.81;4900321;29;20048;-72
2020/12/11 10:23:31;;;;;;;10.43;5.20;;;;;;;4.90;77.58;98717.25;4900727;29;20507;-72
2020/12/11 10:25:58;;;;;;;13.50;6.60;;;;;;;4.84;77.32;98712.19;4900462;29;20526;-72
2020/12/11 10:28:27;;;;;;;13.07;6.35;;;;;;;4.90;77.47;98712.19;4900584;29;20072;-71
2020/12/11 10:30:57;;;;;;;13.82;6.80;;;;;;;4.93;77.95;98706.31;4900516;29;20052;-72
2020/12/11 10:33:24;;;;;;;12.07;5.82;;;;;;;4.91;77.48;98713.06;4900591;29;20525;-72
2020/12/11 10:35:52;;;;;;;10.02;5.30;;;;;;;4.84;77.35;98702.06;4900321;29;20052;-71
2020/12/11 10:38:21;;;;;;;12.60;5.60;;;;;;;4.83;77.13;98695.31;4900498;29;20073;-72
2020/12/11 10:40:49;;;;;;;11.68;5.43;;;;;;;4.92;76.86;98692.81;4900422;29;20498;-71
2020/12/11 10:43:17;;;;;;;13.52;6.70;;;;;;;4.82;77.25;98673.41;4900734;29;20144;-71
2020/12/11 10:45:45;;;;;;;8.95;4.50;;;;;;;4.96;77.26;98697.09;4900148;29;20048;-71
2020/12/11 10:48:13;;;;;;;10.30;5.38;;;;;;;5.00;76.94;98692.88;4900541;29;20059;-72
2020/12/11 10:50:42;;;;;;;11.40;5.88;;;;;;;4.98;77.14;98692.88;4900250;29;20048;-71
2020/12/11 10:53:10;;;;;;;11.23;5.65;;;;;;;5.00;77.26;98696.25;4900144;29;20048;-72
2020/12/11 10:55:48;;;;;;;11.65;5.25;;;;;;;4.93;76.84;98689.47;4899936;29;20041;-71
2020/12/11 10:58:17;;;;;;;10.05;4.97;;;;;;;4.96;77.18;98681.91;4900005;29;20067;-71
2020/12/11 11:00:45;;;;;;;9.10;4.22;;;;;;;4.98;77.04;98692.88;4900022;29;20049;-72
2020/12/11 11:03:13;;;;;;;6.40;3.10;;;;;;;5.03;77.48;98685.31;4899906;29;20041;-72
2020/12/11 11:05:43;;;;;;;7.75;3.25;;;;;;;5.02;77.09;98679.41;4899998;29;20045;-72
2020/12/11 11:08:10;;;;;;;;;;;;;;;5.02;76.72;98681.94;4900201;29;20083;-72
2020/12/11 11:10:42;;;;;;;8.15;3.85;;;;;;;5.02;76.40;98676.03;4900705;29;19930;-71
2020/12/11 11:13:18;;;;;;;7.78;3.75;;;;;;;5.05;76.91;98676.91;4899814;29;20056;-72
2020/12/11 11:15:49;;;;;;;8.82;4.38;;;;;;;5.07;77.07;98664.25;4900117;29;20076;-71
2020/12/11 11:26:35;;;;;;;8.15;4.00;;;;;;;5.03;77.37;98628.00;4899407;29;20053;-72
2020/12/11 11:29:04;;;;;;;8.60;4.25;;;;;;;5.22;77.63;98650.00;4898194;29;20080;-71
2020/12/11 11:31:31;;;;;;;9.90;4.50;;;;;;;4.88;77.43;98602.66;4899307;29;20073;-71
2020/12/11 11:34:01;;;;;;;9.50;4.40;;;;;;;5.23;77.03;98655.91;4898229;29;20124;-71
2020/12/11 11:36:29;;;;;;;10.07;4.63;;;;;;;5.16;76.96;98644.91;4899602;29;20057;-72
2020/12/11 11:38:57;;;;;;;8.05;4.10;;;;;;;5.16;76.67;98649.16;4899142;29;20044;-72
2020/12/11 11:44:26;;;;;;;10.77;5.07;;;;;;;5.12;76.20;98643.22;4899177;29;20125;-72
2020/12/11 11:46:58;;;;;;;8.85;4.93;;;;;;;5.07;76.35;98651.59;4899051;29;20053;-71
2020/12/11 11:49:30;;;;;;;6.53;3.45;;;;;;;4.36;76.16;98542.63;4897881;29;20104;-71
2020/12/11 11:52:09;;;;;;;8.05;4.00;;;;;;;4.86;76.31;98631.28;4899000;29;20075;-71
2020/12/11 11:54:37;;;;;;;8.13;3.85;;;;;;;4.82;77.25;98648.13;4899085;29;20460;-71
2020/12/11 11:57:05;;;;;;;8.02;4.00;;;;;;;4.75;77.17;98643.91;4899020;29;20457;-72
2020/12/11 11:59:36;;;;;;;7.57;3.50;;;;;;;4.73;77.30;98645.53;4899074;29;20190;-71
2020/12/11 12:02:04;;;;;;;5.65;2.72;;;;;;;4.61;77.30;98631.16;4898846;29;20403;-71
2020/12/11 12:04:32;;;;;;;5.78;3.17;;;;;;;4.70;77.53;98637.97;4898804;29;20044;-71
2020/12/11 12:07:00;;;;;;;7.93;3.65;;;;;;;4.70;77.78;98643.03;4898631;29;20059;-71